createdAt,value
2023-02-19T00:01:24.126Z,10.53
2023-02-19T00:03:51.909Z,10.57
2023-02-19T00:06:18.096Z,10.53
2023-02-19T00:08:44.304Z,10.48
2023-02-19T00:11:10.764Z,10.56
2023-02-19T00:13:37.030Z,10.57
2023-02-19T00:16:03.231Z,10.54
2023-02-19T00:18:29.404Z,10.46
2023-02-19T00:20:55.591Z,10.45
2023-02-19T00:23:21.796Z,10.40
2023-02-19T00:25:47.955Z,10.43
2023-02-19T00:28:14.132Z,10.45
2023-02-19T00:30:40.299Z,10.39
2023-02-19T00:33:06.494Z,10.46
2023-02-19T00:35:32.683Z,10.39
2023-02-19T00:37:58.838Z,10.40
2023-02-19T00:40:25.001Z,10.41
2023-02-19T00:42:51.141Z,10.40
2023-02-19T00:45:18.500Z,10.38
2023-02-19T00:47:44.691Z,10.40
2023-02-19T00:50:10.822Z,10.42
2023-02-19T00:52:36.970Z,10.37
2023-02-19T00:55:03.130Z,10.29
2023-02-19T00:57:29.388Z,10.36
2023-02-19T00:59:55.542Z,10.32
2023-02-19T01:02:21.685Z,10.31
2023-02-19T01:04:47.910Z,10.29
2023-02-19T01:07:14.061Z,10.26
2023-02-19T01:09:40.481Z,10.29
2023-02-19T01:12:06.680Z,10.24
2023-02-19T01:14:32.879Z,10.21
2023-02-19T01:16:59.089Z,10.25
2023-02-19T01:19:25.287Z,10.25
2023-02-19T01:21:51.509Z,10.20
2023-02-19T01:24:17.697Z,10.20
2023-02-19T01:26:43.825Z,10.20
2023-02-19T01:29:09.978Z,10.21
2023-02-19T01:31:36.158Z,10.18
2023-02-19T01:34:02.407Z,10.20
2023-02-19T01:36:28.623Z,10.15
2023-02-19T01:38:54.797Z,10.13
2023-02-19T01:41:21.006Z,10.14
2023-02-19T01:43:47.240Z,10.09
2023-02-19T01:46:13.407Z,9.99
2023-02-19T01:48:39.550Z,9.91
2023-02-19T01:51:05.691Z,9.93
2023-02-19T01:53:33.619Z,9.91
2023-02-19T01:55:59.822Z,9.90
2023-02-19T01:58:26.009Z,9.85
2023-02-19T02:00:52.208Z,9.84
2023-02-19T02:03:18.460Z,9.88
2023-02-19T02:05:44.601Z,9.83
2023-02-19T02:08:10.746Z,9.77
2023-02-19T02:10:36.978Z,9.69
2023-02-19T02:13:03.144Z,9.69
2023-02-19T02:15:30.318Z,9.63
2023-02-19T02:17:56.488Z,9.62
2023-02-19T02:20:22.675Z,9.59
2023-02-19T02:22:48.897Z,9.57
2023-02-19T02:25:15.313Z,9.58
2023-02-19T02:27:41.497Z,9.58
2023-02-19T02:30:07.650Z,9.52
2023-02-19T02:32:33.865Z,9.55
2023-02-19T02:35:00.043Z,9.55
2023-02-19T02:37:26.179Z,9.50
2023-02-19T02:39:52.378Z,9.51
2023-02-19T02:42:18.560Z,9.51
2023-02-19T02:44:44.784Z,9.43
2023-02-19T02:47:10.987Z,9.42
2023-02-19T02:49:37.158Z,9.42
2023-02-19T02:52:03.319Z,9.44
2023-02-19T02:54:29.427Z,9.41
2023-02-19T02:56:55.637Z,9.47
2023-02-19T02:59:21.802Z,9.46
2023-02-19T03:01:47.984Z,9.44
2023-02-19T03:04:14.173Z,9.47
2023-02-19T03:06:40.312Z,9.44
2023-02-19T03:09:06.486Z,9.41
2023-02-19T03:11:32.684Z,9.40
2023-02-19T03:13:58.798Z,9.36
2023-02-19T03:16:25.013Z,9.32
2023-02-19T03:18:51.220Z,9.29
2023-02-19T03:21:17.402Z,9.28
2023-02-19T03:23:43.620Z,9.31
2023-02-19T03:26:09.768Z,9.30
2023-02-19T03:28:35.900Z,9.26
2023-02-19T03:31:02.160Z,9.27
2023-02-19T03:33:28.372Z,9.22
2023-02-19T03:35:54.569Z,9.19
2023-02-19T03:38:20.758Z,9.17
2023-02-19T03:40:46.951Z,9.07
2023-02-19T03:43:13.147Z,9.05
2023-02-19T03:45:39.377Z,9.00
2023-02-19T03:48:05.534Z,8.99
2023-02-19T03:50:31.792Z,8.96
2023-02-19T03:52:58.345Z,8.94
2023-02-19T03:55:24.553Z,8.85
2023-02-19T03:57:50.742Z,8.87
2023-02-19T04:00:16.888Z,8.84
2023-02-19T04:02:43.000Z,8.80
2023-02-19T04:05:09.169Z,8.85
2023-02-19T04:07:35.363Z,8.82
2023-02-19T04:10:01.506Z,8.80
2023-02-19T04:12:27.709Z,8.80
2023-02-19T04:14:53.846Z,8.78
2023-02-19T04:17:19.972Z,8.82
2023-02-19T04:19:46.110Z,8.77
2023-02-19T04:22:12.236Z,8.74
2023-02-19T04:24:38.462Z,8.80
2023-02-19T04:27:04.676Z,8.79
2023-02-19T04:29:30.833Z,8.79
2023-02-19T04:31:57.058Z,8.78
2023-02-19T04:34:23.188Z,8.79
2023-02-19T04:36:49.375Z,8.80
2023-02-19T04:39:15.700Z,8.84
2023-02-19T04:41:41.836Z,8.84
2023-02-19T04:44:08.017Z,8.82
2023-02-19T04:46:34.158Z,8.81
2023-02-19T04:49:00.319Z,8.78
2023-02-19T04:51:26.449Z,8.83
2023-02-19T04:53:52.601Z,8.83
2023-02-19T04:56:18.751Z,8.87
2023-02-19T04:58:44.904Z,8.87
2023-02-19T05:01:11.457Z,8.90
2023-02-19T05:03:37.841Z,8.89
2023-02-19T05:06:03.971Z,8.85
2023-02-19T05:08:30.108Z,8.86
2023-02-19T05:10:56.233Z,8.83
2023-02-19T05:13:22.442Z,8.84
2023-02-19T05:15:49.719Z,8.76
2023-02-19T05:18:15.911Z,8.82
2023-02-19T05:20:42.098Z,8.78
2023-02-19T05:23:08.240Z,8.77
2023-02-19T05:25:34.465Z,8.79
2023-02-19T05:28:00.643Z,8.79
2023-02-19T05:30:26.820Z,8.77
2023-02-19T05:32:53.064Z,8.78
2023-02-19T05:35:19.203Z,8.82
2023-02-19T05:37:45.356Z,8.79
2023-02-19T05:40:11.544Z,8.79
2023-02-19T05:42:37.713Z,8.72
2023-02-19T05:45:03.833Z,8.69
2023-02-19T05:47:30.009Z,8.73
2023-02-19T05:49:56.206Z,8.70
2023-02-19T05:52:22.398Z,8.68
2023-02-19T05:54:48.526Z,8.66
2023-02-19T05:57:14.691Z,8.71
2023-02-19T05:59:40.823Z,8.68
2023-02-19T06:02:09.977Z,8.66
2023-02-19T06:04:36.362Z,8.64
2023-02-19T06:07:02.488Z,8.69
2023-02-19T06:09:28.676Z,8.67
2023-02-19T06:11:54.916Z,8.67
2023-02-19T06:14:21.077Z,8.68
2023-02-19T06:16:47.287Z,8.66
2023-02-19T06:19:13.497Z,8.66
2023-02-19T06:21:39.663Z,8.68
2023-02-19T06:24:05.863Z,8.65
2023-02-19T06:26:32.045Z,8.64
2023-02-19T06:28:58.207Z,8.63
2023-02-19T06:31:24.489Z,8.67
2023-02-19T06:33:50.892Z,8.68
2023-02-19T06:36:17.204Z,8.62
2023-02-19T06:38:43.380Z,8.64
2023-02-19T06:41:09.880Z,8.68
2023-02-19T06:43:36.212Z,8.73
2023-02-19T06:46:02.393Z,8.76
2023-02-19T06:48:28.613Z,8.82
2023-02-19T06:50:57.540Z,8.87
2023-02-19T06:53:23.701Z,8.93
2023-02-19T06:55:49.818Z,8.95
2023-02-19T06:58:16.032Z,8.95
2023-02-19T07:00:44.167Z,9.01
2023-02-19T07:03:10.406Z,9.03
2023-02-19T07:05:36.570Z,9.08
2023-02-19T07:08:02.722Z,9.11
2023-02-19T07:10:28.900Z,9.13
2023-02-19T07:12:55.060Z,9.16
2023-02-19T07:15:21.250Z,9.21
2023-02-19T07:17:47.416Z,9.26
2023-02-19T07:20:13.621Z,9.30
2023-02-19T07:22:39.804Z,9.36
2023-02-19T07:25:05.941Z,9.42
2023-02-19T07:27:32.150Z,9.40
2023-02-19T07:29:58.323Z,9.46
2023-02-19T07:32:24.456Z,9.50
2023-02-19T07:34:50.629Z,9.56
2023-02-19T07:37:16.772Z,9.63
2023-02-19T07:39:42.985Z,9.73
2023-02-19T07:42:09.123Z,9.82
2023-02-19T07:44:35.327Z,9.81
2023-02-19T07:47:01.502Z,9.84
2023-02-19T07:49:27.692Z,9.95
2023-02-19T07:51:53.898Z,9.92
2023-02-19T07:54:20.026Z,9.86
2023-02-19T07:56:46.193Z,9.83
2023-02-19T07:59:12.356Z,9.85
2023-02-19T08:01:38.562Z,9.90
2023-02-19T08:04:04.710Z,9.95
2023-02-19T08:06:30.897Z,10.02
2023-02-19T08:08:57.170Z,10.08
2023-02-19T08:11:23.373Z,10.15
2023-02-19T08:13:49.551Z,10.21
2023-02-19T08:16:21.770Z,10.11
2023-02-19T08:18:53.050Z,10.09
2023-02-19T08:21:19.250Z,10.28
2023-02-19T08:23:45.384Z,10.47
2023-02-19T08:26:11.621Z,10.80
2023-02-19T08:28:37.802Z,10.74
2023-02-19T08:31:04.002Z,10.81
2023-02-19T08:33:30.157Z,10.77
2023-02-19T08:35:56.303Z,10.75
2023-02-19T08:38:22.490Z,10.76
2023-02-19T08:40:48.691Z,10.81
2023-02-19T08:43:14.893Z,10.86
2023-02-19T08:45:41.094Z,10.82
2023-02-19T08:48:07.286Z,10.92
2023-02-19T08:50:33.416Z,11.03
2023-02-19T08:52:59.691Z,10.94
2023-02-19T08:55:25.863Z,10.97
2023-02-19T08:57:52.154Z,11.07
2023-02-19T09:00:18.353Z,11.10
2023-02-19T09:02:44.523Z,11.21
2023-02-19T09:05:10.731Z,11.29
2023-02-19T09:07:36.934Z,11.33
2023-02-19T09:10:03.080Z,11.38
2023-02-19T09:12:29.217Z,11.54
2023-02-19T09:14:55.426Z,11.61
2023-02-19T09:17:21.586Z,11.72
2023-02-19T09:19:50.001Z,11.99
2023-02-19T09:22:16.907Z,12.21
2023-02-19T09:24:43.098Z,12.06
2023-02-19T09:27:09.284Z,12.19
2023-02-19T09:29:35.440Z,12.38
2023-02-19T09:32:01.614Z,12.83
2023-02-19T09:34:27.789Z,12.82
2023-02-19T09:36:53.944Z,12.57
2023-02-19T09:39:20.096Z,12.08
2023-02-19T09:41:46.283Z,12.10
2023-02-19T09:44:12.420Z,11.93
2023-02-19T09:46:38.561Z,11.65
2023-02-19T09:49:04.687Z,11.71
2023-02-19T09:51:30.856Z,11.71
2023-02-19T09:53:57.021Z,11.69
2023-02-19T09:56:23.155Z,11.76
2023-02-19T09:58:49.307Z,11.95
2023-02-19T10:01:15.536Z,12.11
2023-02-19T10:03:41.792Z,12.23
2023-02-19T10:06:11.163Z,12.13
2023-02-19T10:08:37.561Z,12.19
2023-02-19T10:11:03.720Z,12.08
2023-02-19T10:13:29.911Z,12.13
2023-02-19T10:15:56.083Z,12.10
2023-02-19T10:18:22.274Z,12.13
2023-02-19T10:20:48.504Z,12.24
2023-02-19T10:23:14.665Z,12.52
2023-02-19T10:25:40.820Z,12.89
2023-02-19T10:28:08.513Z,12.60
2023-02-19T10:30:34.696Z,12.66
2023-02-19T10:33:00.894Z,12.81
2023-02-19T10:35:27.062Z,12.88
2023-02-19T10:37:53.260Z,12.71
2023-02-19T10:40:19.475Z,12.64
2023-02-19T10:42:45.642Z,13.11
2023-02-19T10:45:11.804Z,13.17
2023-02-19T10:47:37.967Z,12.84
2023-02-19T10:50:04.792Z,12.94
2023-02-19T10:52:31.043Z,12.97
2023-02-19T10:54:57.221Z,12.99
2023-02-19T10:57:23.417Z,12.93
2023-02-19T10:59:49.562Z,12.82
2023-02-19T11:02:15.725Z,12.71
2023-02-19T11:04:42.098Z,12.92
2023-02-19T11:07:08.310Z,12.88
2023-02-19T11:09:34.493Z,13.32
2023-02-19T11:12:00.691Z,13.39
2023-02-19T11:14:26.996Z,13.41
2023-02-19T11:16:53.219Z,13.38
2023-02-19T11:19:19.450Z,13.45
2023-02-19T11:21:45.655Z,13.32
2023-02-19T11:24:11.831Z,13.18
2023-02-19T11:26:38.067Z,13.20
2023-02-19T11:29:04.323Z,13.11
2023-02-19T11:31:30.603Z,13.35
2023-02-19T11:33:56.811Z,13.44
2023-02-19T11:36:22.949Z,13.33
2023-02-19T11:38:49.156Z,13.46
2023-02-19T11:41:15.434Z,13.59
2023-02-19T11:43:41.570Z,13.33
2023-02-19T11:46:07.770Z,13.35
2023-02-19T11:48:33.923Z,12.94
2023-02-19T11:51:00.078Z,12.96
2023-02-19T11:53:26.291Z,13.09
2023-02-19T11:55:52.458Z,13.15
2023-02-19T11:58:18.625Z,13.33
2023-02-19T12:00:44.776Z,13.47
2023-02-19T12:03:10.930Z,13.61
2023-02-19T12:05:37.099Z,13.56
2023-02-19T12:08:03.316Z,13.77
2023-02-19T12:10:29.525Z,13.85
2023-02-19T12:12:55.697Z,14.09
2023-02-19T12:15:21.905Z,14.03
2023-02-19T12:17:48.080Z,14.24
2023-02-19T12:20:14.235Z,14.17
2023-02-19T12:22:40.377Z,14.31
2023-02-19T12:25:06.521Z,14.46
2023-02-19T12:27:32.694Z,13.91
2023-02-19T12:29:58.853Z,13.78
2023-02-19T12:32:24.971Z,13.43
2023-02-19T12:34:51.100Z,13.17
2023-02-19T12:37:17.283Z,12.94
2023-02-19T12:39:43.420Z,13.00
2023-02-19T12:42:09.559Z,13.04
2023-02-19T12:44:35.747Z,12.96
2023-02-19T12:47:01.910Z,12.74
2023-02-19T12:49:28.581Z,12.75
2023-02-19T12:51:54.773Z,12.77
2023-02-19T12:54:20.919Z,12.81
2023-02-19T12:56:47.118Z,12.78
2023-02-19T12:59:13.239Z,12.73
2023-02-19T13:01:39.429Z,12.73
2023-02-19T13:04:05.553Z,12.87
2023-02-19T13:06:31.734Z,12.98
2023-02-19T13:09:06.462Z,13.24
2023-02-19T13:11:35.091Z,13.42
2023-02-19T13:14:02.480Z,13.58
2023-02-19T13:16:28.667Z,13.57
2023-02-19T13:18:54.889Z,13.57
2023-02-19T13:21:21.077Z,13.56
2023-02-19T13:23:47.240Z,13.47
2023-02-19T13:26:13.663Z,13.51
2023-02-19T13:28:39.991Z,13.64
2023-02-19T13:31:06.280Z,13.80
2023-02-19T13:33:32.490Z,13.76
2023-02-19T13:36:00.997Z,14.07
2023-02-19T13:38:27.175Z,14.32
2023-02-19T13:40:53.366Z,14.21
2023-02-19T13:43:19.555Z,13.92
2023-02-19T13:45:45.771Z,13.82
2023-02-19T13:48:12.002Z,13.72
2023-02-19T13:50:38.125Z,13.86
2023-02-19T13:53:04.314Z,13.64
2023-02-19T13:55:30.454Z,13.64
2023-02-19T13:57:56.579Z,13.65
2023-02-19T14:00:22.756Z,13.66
2023-02-19T14:02:48.939Z,13.51
2023-02-19T14:05:15.117Z,13.64
2023-02-19T14:07:41.298Z,13.55
2023-02-19T14:10:07.468Z,13.70
2023-02-19T14:12:33.684Z,13.46
2023-02-19T14:14:59.881Z,13.40
2023-02-19T14:17:26.014Z,13.33
2023-02-19T14:19:52.178Z,13.13
2023-02-19T14:22:18.324Z,13.11
2023-02-19T14:24:44.540Z,13.07
2023-02-19T14:27:10.740Z,12.99
2023-02-19T14:29:36.969Z,12.98
2023-02-19T14:32:03.187Z,13.01
2023-02-19T14:34:29.350Z,13.02
2023-02-19T14:36:55.518Z,13.15
2023-02-19T14:39:21.711Z,13.06
2023-02-19T14:41:47.891Z,13.13
2023-02-19T14:44:14.121Z,13.00
2023-02-19T14:46:40.368Z,12.94
2023-02-19T14:49:06.557Z,12.96
2023-02-19T14:51:32.750Z,12.87
2023-02-19T14:53:58.953Z,12.85
2023-02-19T14:56:25.156Z,12.81
2023-02-19T14:58:51.333Z,12.72
2023-02-19T15:01:17.557Z,12.65
2023-02-19T15:03:43.726Z,12.61
2023-02-19T15:06:09.911Z,12.62
2023-02-19T15:08:36.102Z,12.71
2023-02-19T15:11:02.283Z,12.65
2023-02-19T15:13:28.521Z,12.56
2023-02-19T15:15:54.774Z,12.55
2023-02-19T15:18:20.947Z,12.46
2023-02-19T15:20:47.369Z,12.45
2023-02-19T15:23:13.573Z,12.38
2023-02-19T15:25:39.741Z,12.32
2023-02-19T15:28:05.932Z,12.34
2023-02-19T15:30:32.160Z,12.32
2023-02-19T15:32:58.402Z,12.35
2023-02-19T15:35:24.532Z,12.32
2023-02-19T15:37:50.679Z,12.34
2023-02-19T15:40:16.864Z,12.31
2023-02-19T15:42:43.112Z,12.25
2023-02-19T15:45:09.273Z,12.32
2023-02-19T15:47:35.439Z,12.25
2023-02-19T15:50:01.723Z,12.18
2023-02-19T15:52:27.962Z,12.08
2023-02-19T15:54:54.196Z,12.04
2023-02-19T15:57:20.375Z,12.01
2023-02-19T15:59:46.537Z,12.03
2023-02-19T16:02:12.734Z,12.01
2023-02-19T16:04:38.896Z,11.99
2023-02-19T16:07:05.016Z,11.96
2023-02-19T16:09:31.196Z,11.95
2023-02-19T16:11:57.398Z,11.95
2023-02-19T16:14:23.554Z,11.83
2023-02-19T16:16:49.726Z,11.68
2023-02-19T16:19:15.925Z,11.53
2023-02-19T16:21:45.078Z,11.20
2023-02-19T16:24:11.236Z,10.89
2023-02-19T16:26:37.383Z,10.61
2023-02-19T16:29:03.559Z,10.41
2023-02-19T16:31:29.817Z,10.31
2023-02-19T16:33:56.017Z,10.20
2023-02-19T16:36:22.208Z,10.13
2023-02-19T16:38:48.419Z,10.06
2023-02-19T16:41:14.587Z,9.95
2023-02-19T16:43:40.790Z,9.89
2023-02-19T16:46:07.041Z,9.82
2023-02-19T16:48:33.221Z,9.77
2023-02-19T16:50:59.407Z,9.74
2023-02-19T16:53:25.572Z,9.72
2023-02-19T16:55:51.775Z,9.70
2023-02-19T16:58:17.952Z,9.76
2023-02-19T17:00:44.156Z,9.69
2023-02-19T17:03:10.290Z,9.67
2023-02-19T17:05:36.439Z,9.71
2023-02-19T17:08:04.728Z,9.77
2023-02-19T17:10:30.864Z,9.77
2023-02-19T17:12:57.009Z,9.82
2023-02-19T17:15:23.217Z,9.91
2023-02-19T17:17:49.426Z,9.96
2023-02-19T17:20:15.606Z,9.97
2023-02-19T17:22:41.768Z,10.01
2023-02-19T17:25:07.959Z,9.95
2023-02-19T17:27:34.155Z,9.96
2023-02-19T17:30:00.397Z,9.93
2023-02-19T17:32:26.665Z,10.00
2023-02-19T17:34:52.901Z,9.98
2023-02-19T17:37:19.125Z,9.95
2023-02-19T17:39:45.409Z,9.89
2023-02-19T17:42:11.571Z,9.93
2023-02-19T17:44:37.764Z,9.94
2023-02-19T17:47:03.913Z,9.90
2023-02-19T17:49:30.087Z,9.87
2023-02-19T17:51:56.308Z,9.86
2023-02-19T17:54:22.433Z,9.82
2023-02-19T17:56:48.622Z,9.85
2023-02-19T17:59:15.972Z,9.84
2023-02-19T18:01:43.058Z,9.75
2023-02-19T18:04:09.322Z,9.74
2023-02-19T18:06:35.571Z,9.83
2023-02-19T18:09:01.778Z,9.74
2023-02-19T18:11:27.970Z,9.70
2023-02-19T18:13:54.102Z,9.63
2023-02-19T18:16:20.313Z,9.60
2023-02-19T18:18:46.472Z,9.56
2023-02-19T18:21:12.969Z,9.53
2023-02-19T18:23:39.633Z,9.49
2023-02-19T18:26:05.828Z,9.49
2023-02-19T18:28:32.903Z,9.48
2023-02-19T18:30:59.282Z,9.50
2023-02-19T18:33:25.501Z,9.44
2023-02-19T18:35:51.626Z,9.50
2023-02-19T18:38:17.835Z,9.57
2023-02-19T18:40:44.045Z,9.66
2023-02-19T18:43:10.196Z,9.74
2023-02-19T18:45:36.387Z,9.75
2023-02-19T18:48:02.535Z,9.86
2023-02-19T18:50:28.731Z,9.92
2023-02-19T18:52:54.904Z,9.90
2023-02-19T18:55:21.141Z,9.94
2023-02-19T18:57:47.446Z,9.92
2023-02-19T19:00:13.616Z,9.91
2023-02-19T19:02:49.108Z,9.90
2023-02-19T19:05:15.851Z,9.89
2023-02-19T19:07:42.035Z,9.79
2023-02-19T19:10:08.190Z,9.73
2023-02-19T19:12:34.319Z,9.71
2023-02-19T19:15:00.509Z,9.61
2023-02-19T19:17:26.678Z,9.48
2023-02-19T19:19:52.804Z,9.40
2023-02-19T19:22:18.960Z,9.36
2023-02-19T19:24:45.146Z,9.25
2023-02-19T19:27:11.339Z,9.16
2023-02-19T19:29:37.848Z,9.13
2023-02-19T19:32:04.055Z,9.10
2023-02-19T19:34:30.266Z,9.01
2023-02-19T19:36:56.424Z,8.99
2023-02-19T19:39:22.620Z,8.93
2023-02-19T19:41:48.796Z,8.89
2023-02-19T19:44:15.022Z,8.82
2023-02-19T19:46:41.232Z,8.78
2023-02-19T19:49:07.421Z,8.81
2023-02-19T19:51:33.600Z,8.78
2023-02-19T19:53:59.876Z,8.75
2023-02-19T19:56:26.049Z,8.73
2023-02-19T19:58:52.221Z,8.70
2023-02-19T20:01:18.497Z,8.71
2023-02-19T20:03:44.671Z,8.75
2023-02-19T20:06:10.856Z,8.70
2023-02-19T20:08:37.046Z,8.71
2023-02-19T20:11:03.228Z,8.73
2023-02-19T20:13:29.376Z,8.71
2023-02-19T20:15:55.734Z,8.71
2023-02-19T20:18:21.981Z,8.73
2023-02-19T20:20:48.179Z,8.70
2023-02-19T20:23:14.365Z,8.70
2023-02-19T20:25:40.560Z,8.73
2023-02-19T20:28:06.743Z,8.73
2023-02-19T20:30:32.978Z,8.68
2023-02-19T20:32:59.243Z,8.73
2023-02-19T20:35:26.483Z,8.78
2023-02-19T20:37:52.789Z,8.73
2023-02-19T20:40:18.980Z,8.73
2023-02-19T20:42:45.124Z,8.75
2023-02-19T20:45:11.323Z,8.75
2023-02-19T20:47:37.515Z,8.78
2023-02-19T20:50:03.655Z,8.85
2023-02-19T20:52:29.871Z,8.90
2023-02-19T20:54:56.131Z,8.87
2023-02-19T20:57:22.293Z,8.86
2023-02-19T20:59:48.595Z,8.81
2023-02-19T21:02:14.776Z,8.87
2023-02-19T21:04:40.943Z,8.91
2023-02-19T21:07:09.840Z,8.94
2023-02-19T21:09:36.028Z,8.94
2023-02-19T21:12:02.226Z,8.89
2023-02-19T21:14:28.401Z,8.86
2023-02-19T21:16:54.554Z,8.87
2023-02-19T21:19:23.615Z,8.92
2023-02-19T21:21:49.830Z,8.94
2023-02-19T21:24:16.035Z,8.94
2023-02-19T21:26:42.208Z,8.92
2023-02-19T21:29:08.360Z,8.94
2023-02-19T21:31:34.587Z,8.96
2023-02-19T21:34:00.735Z,8.95
2023-02-19T21:36:26.908Z,8.93
2023-02-19T21:38:53.113Z,8.88
2023-02-19T21:41:19.275Z,8.90
2023-02-19T21:43:45.410Z,8.92
2023-02-19T21:46:11.857Z,8.90
2023-02-19T21:48:38.114Z,8.93
2023-02-19T21:51:04.239Z,8.94
2023-02-19T21:53:30.374Z,8.91
2023-02-19T21:55:58.851Z,8.96
2023-02-19T21:58:25.229Z,9.01
2023-02-19T22:00:51.402Z,9.11
2023-02-19T22:03:17.599Z,9.12
2023-02-19T22:05:43.802Z,9.07
2023-02-19T22:08:10.007Z,9.07
2023-02-19T22:10:36.211Z,9.03
2023-02-19T22:13:02.343Z,9.10
2023-02-19T22:15:28.492Z,9.13
2023-02-19T22:17:54.640Z,9.11
2023-02-19T22:20:20.793Z,9.04
2023-02-19T22:22:46.922Z,9.07
2023-02-19T22:25:13.154Z,8.99
2023-02-19T22:27:39.300Z,9.01
2023-02-19T22:30:05.849Z,9.03
2023-02-19T22:32:32.200Z,8.98
2023-02-19T22:34:58.502Z,8.96
2023-02-19T22:37:24.663Z,8.93
2023-02-19T22:39:50.841Z,8.88
2023-02-19T22:42:17.003Z,8.86
2023-02-19T22:44:43.148Z,8.84
2023-02-19T22:47:09.317Z,8.75
2023-02-19T22:49:35.493Z,8.76
2023-02-19T22:52:01.675Z,8.74
2023-02-19T22:54:27.851Z,8.78
2023-02-19T22:56:54.050Z,8.73
2023-02-19T22:59:20.225Z,8.70
2023-02-19T23:01:46.431Z,8.71
2023-02-19T23:04:12.662Z,8.68
2023-02-19T23:06:38.799Z,8.66
2023-02-19T23:09:04.955Z,8.63
2023-02-19T23:11:31.141Z,8.65
2023-02-19T23:13:57.355Z,8.63
2023-02-19T23:16:23.613Z,8.66
2023-02-19T23:18:49.839Z,8.70
2023-02-19T23:21:16.018Z,8.73
2023-02-19T23:23:42.212Z,8.65
2023-02-19T23:26:08.343Z,8.58
2023-02-19T23:28:34.549Z,8.59
2023-02-19T23:31:00.773Z,8.54
2023-02-19T23:33:27.047Z,8.54
2023-02-19T23:35:53.215Z,8.61
2023-02-19T23:38:19.958Z,8.65
2023-02-19T23:40:46.086Z,8.63
2023-02-19T23:43:12.245Z,8.64
2023-02-19T23:45:38.433Z,8.65
2023-02-19T23:48:04.610Z,8.70
2023-02-19T23:50:30.887Z,8.74
2023-02-19T23:52:57.088Z,8.87
2023-02-19T23:55:23.217Z,8.87
2023-02-19T23:57:49.415Z,8.87
